Time;durP1;ratioP1;P1;durP2;ratioP2;P2;SDS_P1;SDS_P2;PMS_P1;PMS_P2;Temp;Humidity;BMP_temperature;BMP_pressure;BME280_temperature;BME280_humidity;BME280_pressure;Samples;Min_cycle;Max_cycle;Signal;HPM_P1;HPM_P2
2022/01/31 00:00:55;;;;;;;33.05;8.85;;;;;;;;;;5148427;27;20110;-78
2022/01/31 00:03:21;;;;;;;;;;;;;;;;;;5134748;27;20150;-68
2022/01/31 00:05:48;;;;;;;39.33;9.15;;;;;;;;;;5152252;27;20259;-67
2022/01/31 00:08:22;;;;;;;33.50;9.13;;;;;;;;;;5144094;27;20045;-70
2022/01/31 00:10:48;;;;;;;31.10;9.43;;;;;;;;;;5143572;27;20126;-69
2022/01/31 00:16:15;;;;;;;32.33;8.30;;;;;;;;;;5122857;27;20379;-69
2022/01/31 00:18:44;;;;;;;30.50;9.25;;;;;;;;;;5149595;27;20114;-71
2022/01/31 00:21:10;;;;;;;41.75;9.35;;;;;;;;;;5149194;27;20055;-68
2022/01/31 00:23:36;;;;;;;30.40;8.05;;;;;;;;;;5114034;27;20083;-68
2022/01/31 00:26:03;;;;;;;28.73;8.32;;;;;;;;;;5147790;27;20371;-68
2022/01/31 00:28:29;;;;;;;33.25;8.13;;;;;;;;;;5133689;27;20121;-73
2022/01/31 00:30:55;;;;;;;27.50;7.88;;;;;;;;;;5151921;27;20899;-75
2022/01/31 00:33:21;;;;;;;39.67;9.40;;;;;;;;;;5117592;27;20061;-74
2022/01/31 00:35:47;;;;;;;27.98;8.35;;;;;;;;;;5149773;27;20083;-69
2022/01/31 00:38:13;;;;;;;37.85;8.50;;;;;;;;;;5147226;27;20406;-66
2022/01/31 00:40:41;;;;;;;33.40;7.80;;;;;;;;;;5140475;27;20469;-66
2022/01/31 00:43:12;;;;;;;29.95;8.35;;;;;;;;;;5150294;27;20046;-65
2022/01/31 00:45:45;;;;;;;35.53;7.95;;;;;;;;;;5140276;27;20449;-68
2022/01/31 00:48:17;;;;;;;31.70;8.65;;;;;;;;;;5132519;27;20169;-68
2022/01/31 00:50:47;;;;;;;29.92;8.05;;;;;;;;;;5150279;27;20042;-65
2022/01/31 00:53:13;;;;;;;31.25;8.98;;;;;;;;;;5155642;27;20075;-71
2022/01/31 00:55:39;;;;;;;25.35;7.50;;;;;;;;;;5149221;27;20091;-68
2022/01/31 00:58:05;;;;;;;29.05;9.00;;;;;;;;;;5149291;27;20152;-69
2022/01/31 01:00:31;;;;;;;34.25;10.05;;;;;;;;;;5155186;27;20105;-67
2022/01/31 01:02:57;;;;;;;42.38;9.95;;;;;;;;;;5143792;27;20359;-69
2022/01/31 01:05:23;;;;;;;34.55;10.98;;;;;;;;;;5135678;27;20038;-67
2022/01/31 01:07:49;;;;;;;33.15;11.43;;;;;;;;;;5150062;27;20038;-69
2022/01/31 01:10:16;;;;;;;39.15;11.52;;;;;;;;;;5150237;27;20125;-65
2022/01/31 01:12:43;;;;;;;33.85;11.35;;;;;;;;;;5148003;27;20050;-66
2022/01/31 01:15:09;;;;;;;32.58;11.00;;;;;;;;;;5151003;27;20035;-66
2022/01/31 01:17:35;;;;;;;34.13;12.02;;;;;;;;;;5143658;27;20094;-66
2022/01/31 01:20:02;;;;;;;43.03;12.45;;;;;;;;;;5145621;27;20135;-68
2022/01/31 01:22:28;;;;;;;34.92;12.20;;;;;;;;;;5133506;27;20053;-72
2022/01/31 01:24:54;;;;;;;34.03;11.50;;;;;;;;;;5150165;27;20042;-68
2022/01/31 01:27:21;;;;;;;46.60;13.57;;;;;;;;;;5133422;27;20038;-74
2022/01/31 01:29:47;;;;;;;34.97;13.38;;;;;;;;;;5121592;27;20514;-71
2022/01/31 01:32:13;;;;;;;;;;;;;;;;;;5159827;27;20130;-69
2022/01/31 01:34:39;;;;;;;38.80;14.85;;;;;;;;;;5153758;27;19919;-65
2022/01/31 01:37:06;;;;;;;39.05;15.55;;;;;;;;;;5131949;27;20811;-74
2022/01/31 01:39:32;;;;;;;;;;;;;;;;;;5138564;27;20090;-73
2022/01/31 01:41:58;;;;;;;41.70;16.90;;;;;;;;;;5131856;27;19962;-75
2022/01/31 01:44:39;;;;;;;43.67;17.83;;;;;;;;;;5152011;27;20097;-70
2022/01/31 01:47:05;;;;;;;48.38;18.83;;;;;;;;;;5125518;27;20110;-68
2022/01/31 01:49:31;;;;;;;51.42;19.05;;;;;;;;;;5152706;27;20047;-71
2022/01/31 01:51:58;;;;;;;40.80;18.70;;;;;;;;;;5149967;27;20054;-69
2022/01/31 01:54:24;;;;;;;40.15;19.05;;;;;;;;;;5151909;27;20541;-66
2022/01/31 01:56:50;;;;;;;54.78;20.77;;;;;;;;;;5116626;27;20780;-69
2022/01/31 01:59:16;;;;;;;42.88;20.10;;;;;;;;;;5105203;27;20039;-67
2022/01/31 02:01:42;;;;;;;44.83;21.05;;;;;;;;;;5152936;27;20042;-73
2022/01/31 02:04:08;;;;;;;46.83;22.98;;;;;;;;;;5152768;27;20039;-71
2022/01/31 02:06:34;;;;;;;46.53;22.45;;;;;;;;;;5152630;27;20171;-72
2022/01/31 02:09:02;;;;;;;38.45;20.70;;;;;;;;;;5146781;27;20087;-75
2022/01/31 02:11:28;;;;;;;42.45;21.98;;;;;;;;;;5152935;27;20428;-71
2022/01/31 02:13:54;;;;;;;44.45;21.15;;;;;;;;;;5152082;27;20393;-73
2022/01/31 02:16:20;;;;;;;39.58;22.13;;;;;;;;;;5152696;27;20042;-71
2022/01/31 02:18:52;;;;;;;37.90;21.58;;;;;;;;;;5150227;27;20063;-69
2022/01/31 02:21:18;;;;;;;46.45;22.92;;;;;;;;;;5136884;27;20061;-72
2022/01/31 02:23:44;;;;;;;47.78;22.52;;;;;;;;;;5150793;27;20046;-67
2022/01/31 02:26:10;;;;;;;37.22;20.98;;;;;;;;;;5140202;27;20074;-71
2022/01/31 02:28:37;;;;;;;37.95;20.33;;;;;;;;;;5148691;27;20038;-66
2022/01/31 02:31:04;;;;;;;40.95;21.38;;;;;;;;;;5151824;27;20116;-66
2022/01/31 02:33:30;;;;;;;35.90;20.15;;;;;;;;;;5153041;27;20122;-67
2022/01/31 02:35:58;;;;;;;33.75;19.80;;;;;;;;;;5146272;27;20043;-71
2022/01/31 02:38:24;;;;;;;36.72;19.02;;;;;;;;;;5150298;27;20042;-67
2022/01/31 02:40:50;;;;;;;34.55;19.50;;;;;;;;;;5148767;27;20038;-67
2022/01/31 02:43:30;;;;;;;38.70;20.20;;;;;;;;;;5152577;27;20470;-71
2022/01/31 02:45:56;;;;;;;37.15;21.63;;;;;;;;;;5139763;27;20078;-66
2022/01/31 02:48:24;;;;;;;37.40;22.55;;;;;;;;;;5142289;27;20394;-69
2022/01/31 02:50:50;;;;;;;36.95;22.00;;;;;;;;;;5124865;27;20047;-67
2022/01/31 02:53:28;;;;;;;40.03;22.58;;;;;;;;;;5124284;28;20514;-68
2022/01/31 02:55:56;;;;;;;42.33;23.30;;;;;;;;;;5144778;27;20500;-66
2022/01/31 02:58:23;;;;;;;44.28;23.42;;;;;;;;;;5145491;27;20126;-66
2022/01/31 03:00:49;;;;;;;39.70;24.20;;;;;;;;;;5123410;27;20050;-71
2022/01/31 03:03:15;;;;;;;;;;;;;;;;;;5136490;27;20091;-75
2022/01/31 03:05:41;;;;;;;43.42;23.40;;;;;;;;;;5154750;27;19922;-67
2022/01/31 03:08:08;;;;;;;47.78;24.77;;;;;;;;;;5139044;27;20092;-65
2022/01/31 03:10:34;;;;;;;;;;;;;;;;;;5155956;27;20394;-66
2022/01/31 03:13:00;;;;;;;44.95;25.63;;;;;;;;;;5156091;27;19919;-65
2022/01/31 03:15:27;;;;;;;45.72;24.98;;;;;;;;;;5156695;27;20053;-68
2022/01/31 03:17:53;;;;;;;;;;;;;;;;;;5140541;27;20039;-67
2022/01/31 03:20:20;;;;;;;44.65;23.23;;;;;;;;;;5138023;27;19930;-68
2022/01/31 03:22:46;;;;;;;46.55;23.90;;;;;;;;;;5135787;27;20352;-66
2022/01/31 03:25:12;;;;;;;42.97;21.15;;;;;;;;;;5149226;27;20039;-71
2022/01/31 03:27:39;;;;;;;42.47;20.90;;;;;;;;;;5155733;27;20117;-68
2022/01/31 03:30:07;;;;;;;40.42;20.92;;;;;;;;;;5155913;27;20079;-68
2022/01/31 03:32:34;;;;;;;43.97;20.85;;;;;;;;;;5156444;27;20050;-69
2022/01/31 03:35:01;;;;;;;47.60;19.92;;;;;;;;;;5154236;27;20049;-66
2022/01/31 03:37:27;;;;;;;37.20;18.25;;;;;;;;;;5148559;27;20047;-69
2022/01/31 03:39:53;;;;;;;36.40;17.27;;;;;;;;;;5148558;27;20046;-69
2022/01/31 03:42:19;;;;;;;36.75;17.15;;;;;;;;;;5155213;27;20925;-67
2022/01/31 03:44:46;;;;;;;37.13;16.35;;;;;;;;;;5154411;27;20039;-70
2022/01/31 03:47:12;;;;;;;40.45;15.02;;;;;;;;;;5155531;27;20117;-68
2022/01/31 03:49:38;;;;;;;40.13;13.82;;;;;;;;;;5152253;27;20507;-68
2022/01/31 03:52:05;;;;;;;35.78;11.60;;;;;;;;;;5142513;27;20559;-69
2022/01/31 03:54:31;;;;;;;36.00;10.60;;;;;;;;;;5155110;27;20039;-67
2022/01/31 03:56:57;;;;;;;43.58;9.32;;;;;;;;;;5136408;27;20096;-68
2022/01/31 03:59:23;;;;;;;37.28;6.72;;;;;;;;;;5154946;27;20228;-74
2022/01/31 04:01:49;;;;;;;49.53;8.73;;;;;;;;;;5150673;27;20042;-75
2022/01/31 04:04:15;;;;;;;48.75;9.05;;;;;;;;;;5134868;27;20051;-76
2022/01/31 04:06:41;;;;;;;40.35;7.43;;;;;;;;;;5141866;27;20043;-75
2022/01/31 04:09:07;;;;;;;42.85;8.32;;;;;;;;;;5152376;27;20034;-76
2022/01/31 04:11:33;;;;;;;32.45;7.20;;;;;;;;;;5135207;27;20505;-80
2022/01/31 04:14:00;;;;;;;43.95;7.72;;;;;;;;;;5137070;27;20078;-82
2022/01/31 04:16:26;;;;;;;;;;;;;;;;;;5144400;27;20099;-77
2022/01/31 04:18:52;;;;;;;36.78;7.35;;;;;;;;;;5155474;27;19919;-72
2022/01/31 04:21:18;;;;;;;35.92;6.22;;;;;;;;;;5137777;27;20050;-78
2022/01/31 04:23:46;;;;;;;33.72;6.10;;;;;;;;;;5134864;27;20043;-72
2022/01/31 04:26:14;;;;;;;26.80;5.63;;;;;;;;;;5143507;27;20102;-69
2022/01/31 04:29:01;;;;;;;30.90;4.57;;;;;;;;;;5139863;27;20047;-78
2022/01/31 04:31:41;;;;;;;24.63;4.80;;;;;;;;;;5134483;27;20311;-73
2022/01/31 04:34:09;;;;;;;23.83;4.50;;;;;;;;;;5134488;27;20460;-79
2022/01/31 04:36:35;;;;;;;23.15;4.90;;;;;;;;;;5147093;27;20049;-70
2022/01/31 04:39:02;;;;;;;23.35;5.53;;;;;;;;;;5136581;27;20046;-80
2022/01/31 04:41:28;;;;;;;27.80;4.38;;;;;;;;;;5138526;27;20035;-71
2022/01/31 04:43:58;;;;;;;26.35;5.10;;;;;;;;;;5141967;27;20035;-68
2022/01/31 04:46:24;;;;;;;28.02;4.93;;;;;;;;;;5154504;27;20111;-78
2022/01/31 04:48:50;;;;;;;41.05;5.65;;;;;;;;;;5138352;27;20551;-71
2022/01/31 04:51:16;;;;;;;26.23;5.68;;;;;;;;;;5132603;27;20118;-70
2022/01/31 04:53:42;;;;;;;34.65;6.55;;;;;;;;;;5130684;27;20183;-75
2022/01/31 04:56:09;;;;;;;39.40;5.75;;;;;;;;;;5153902;27;20398;-71
2022/01/31 04:58:35;;;;;;;30.60;4.63;;;;;;;;;;5151100;27;20058;-72
2022/01/31 05:01:01;;;;;;;29.10;5.00;;;;;;;;;;5143631;27;20131;-73
2022/01/31 05:03:27;;;;;;;18.30;4.18;;;;;;;;;;5152274;27;20399;-72
2022/01/31 05:05:53;;;;;;;26.98;4.47;;;;;;;;;;5154875;27;20039;-76
2022/01/31 05:08:25;;;;;;;19.67;3.90;;;;;;;;;;5153992;27;20078;-78
2022/01/31 05:10:51;;;;;;;22.88;4.75;;;;;;;;;;5152783;27;20049;-73
2022/01/31 05:13:17;;;;;;;;;;;;;;;;;;5126012;27;20047;-70
2022/01/31 05:15:44;;;;;;;22.50;4.15;;;;;;;;;;5134648;27;19925;-75
2022/01/31 05:18:10;;;;;;;;;;;;;;;;;;5154511;27;20106;-71
2022/01/31 05:20:36;;;;;;;23.27;4.07;;;;;;;;;;5135165;27;19922;-72
2022/01/31 05:23:02;;;;;;;21.52;4.18;;;;;;;;;;5146851;27;20057;-77
2022/01/31 05:25:28;;;;;;;16.23;2.88;;;;;;;;;;5153716;27;20125;-77
2022/01/31 05:27:54;;;;;;;20.05;3.35;;;;;;;;;;5117712;27;20108;-71
2022/01/31 05:30:22;;;;;;;18.90;3.10;;;;;;;;;;5133024;27;20043;-73
2022/01/31 05:32:48;;;;;;;25.77;4.53;;;;;;;;;;5134611;27;20139;-70
2022/01/31 05:35:14;;;;;;;24.40;3.72;;;;;;;;;;5140198;27;20051;-69
2022/01/31 05:37:41;;;;;;;28.63;4.75;;;;;;;;;;5134408;27;20033;-69
2022/01/31 05:40:08;;;;;;;17.40;3.55;;;;;;;;;;5133468;27;20130;-71
2022/01/31 05:42:34;;;;;;;23.95;4.45;;;;;;;;;;5132705;27;20051;-71
2022/01/31 05:45:01;;;;;;;23.17;3.75;;;;;;;;;;5139262;27;20042;-68
2022/01/31 05:47:27;;;;;;;;;;;;;;;;;;5153741;27;20050;-70
2022/01/31 05:49:53;;;;;;;19.13;3.35;;;;;;;;;;5153861;27;19919;-70
2022/01/31 05:52:19;;;;;;;23.45;4.88;;;;;;;;;;5134152;27;20500;-69
2022/01/31 05:54:45;;;;;;;25.17;3.80;;;;;;;;;;5134226;27;20047;-69
2022/01/31 05:57:12;;;;;;;24.52;3.65;;;;;;;;;;5149994;27;20065;-69
2022/01/31 05:59:41;;;;;;;24.75;3.65;;;;;;;;;;5134786;27;20186;-69
2022/01/31 06:02:08;;;;;;;20.98;3.50;;;;;;;;;;5133284;27;20047;-70
2022/01/31 06:04:34;;;;;;;;;;;;;;;;;;5132737;27;20085;-71
2022/01/31 06:07:00;;;;;;;22.05;4.38;;;;;;;;;;5131930;27;19919;-71
2022/01/31 06:09:27;;;;;;;;;;;;;;;;;;5153926;27;20042;-71
2022/01/31 06:11:53;;;;;;;26.00;4.13;;;;;;;;;;5145686;27;19919;-69
2022/01/31 06:14:20;;;;;;;26.15;3.95;;;;;;;;;;5132551;27;20486;-67
2022/01/31 06:16:46;;;;;;;24.40;3.67;;;;;;;;;;5140925;27;20046;-69
2022/01/31 06:19:12;;;;;;;21.38;4.35;;;;;;;;;;5152686;27;20101;-71
2022/01/31 06:21:38;;;;;;;29.42;4.10;;;;;;;;;;5134337;27;20397;-69
2022/01/31 06:24:09;;;;;;;24.85;4.47;;;;;;;;;;5153022;27;20050;-69
2022/01/31 06:26:35;;;;;;;28.45;4.55;;;;;;;;;;5142744;27;20042;-73
2022/01/31 06:29:01;;;;;;;26.05;4.90;;;;;;;;;;5145791;27;20118;-68
2022/01/31 06:31:29;;;;;;;22.50;4.00;;;;;;;;;;5136541;27;20054;-69
2022/01/31 06:33:55;;;;;;;30.17;4.65;;;;;;;;;;5149508;27;20047;-68
2022/01/31 06:36:24;;;;;;;27.75;4.80;;;;;;;;;;5142849;27;20043;-69
2022/01/31 06:38:50;;;;;;;25.52;3.97;;;;;;;;;;5142608;27;20403;-69
2022/01/31 06:41:18;;;;;;;;;;;;;;;;;;5139975;27;20074;-68
2022/01/31 06:43:44;;;;;;;20.15;3.85;;;;;;;;;;5157264;27;19942;-69
2022/01/31 06:46:10;;;;;;;28.67;4.75;;;;;;;;;;5122418;27;20047;-69
2022/01/31 06:48:36;;;;;;;26.95;4.22;;;;;;;;;;5118277;27;20051;-68
2022/01/31 06:51:02;;;;;;;28.75;4.30;;;;;;;;;;5136929;27;20047;-69
2022/01/31 06:53:29;;;;;;;38.83;6.15;;;;;;;;;;5118123;27;20075;-69
2022/01/31 06:55:56;;;;;;;25.25;3.60;;;;;;;;;;5142238;27;20043;-71
2022/01/31 06:58:22;;;;;;;19.45;3.50;;;;;;;;;;5148514;27;20046;-68
2022/01/31 07:00:48;;;;;;;20.73;4.70;;;;;;;;;;5143813;27;20081;-69
2022/01/31 07:03:14;;;;;;;23.02;3.92;;;;;;;;;;5152682;27;20168;-68
2022/01/31 07:05:41;;;;;;;33.05;4.63;;;;;;;;;;5156058;27;20423;-70
2022/01/31 07:08:07;;;;;;;24.52;4.65;;;;;;;;;;5148459;27;20062;-69
2022/01/31 07:10:33;;;;;;;26.20;3.70;;;;;;;;;;5157204;27;20134;-67
2022/01/31 07:13:02;;;;;;;;;;;;;;;;;;5122226;27;20043;-68
2022/01/31 07:15:28;;;;;;;21.45;3.63;;;;;;;;;;5126904;27;19923;-67
2022/01/31 07:17:54;;;;;;;26.35;3.50;;;;;;;;;;5145269;27;20506;-74
2022/01/31 07:20:35;;;;;;;19.58;3.13;;;;;;;;;;5143708;27;20104;-70
2022/01/31 07:23:08;;;;;;;22.35;3.60;;;;;;;;;;5133120;27;20046;-68
2022/01/31 07:25:37;;;;;;;29.67;4.32;;;;;;;;;;5144841;27;20462;-66
2022/01/31 07:28:04;;;;;;;23.35;3.40;;;;;;;;;;5133203;27;20039;-68
2022/01/31 07:30:31;;;;;;;26.38;4.22;;;;;;;;;;5133316;27;20125;-66
2022/01/31 07:32:57;;;;;;;25.52;4.47;;;;;;;;;;5124662;27;20076;-67
2022/01/31 07:35:23;;;;;;;24.45;4.50;;;;;;;;;;5154751;27;20086;-68
2022/01/31 07:37:49;;;;;;;23.73;4.40;;;;;;;;;;5153259;27;20232;-67
2022/01/31 07:40:15;;;;;;;24.17;4.03;;;;;;;;;;5136169;27;20103;-67
2022/01/31 07:42:41;;;;;;;16.90;3.92;;;;;;;;;;5152633;27;20042;-69
2022/01/31 07:45:07;;;;;;;21.75;4.20;;;;;;;;;;5152213;27;20138;-67
2022/01/31 07:47:33;;;;;;;22.98;3.90;;;;;;;;;;5154008;27;20478;-68
2022/01/31 07:49:59;;;;;;;23.60;4.22;;;;;;;;;;5154663;27;20051;-68
2022/01/31 07:52:26;;;;;;;17.50;3.65;;;;;;;;;;5154489;27;20049;-68
2022/01/31 07:54:52;;;;;;;29.50;4.00;;;;;;;;;;5137920;27;20362;-67
2022/01/31 07:57:19;;;;;;;;;;;;;;;;;;5142823;27;20066;-67
2022/01/31 07:59:45;;;;;;;19.00;3.40;;;;;;;;;;5152240;27;19971;-68
2022/01/31 08:02:11;;;;;;;22.73;3.28;;;;;;;;;;5154369;27;20047;-67
2022/01/31 08:04:37;;;;;;;17.92;4.00;;;;;;;;;;5152069;27;20133;-66
2022/01/31 08:07:04;;;;;;;19.17;3.28;;;;;;;;;;5154023;27;20051;-67
2022/01/31 08:09:30;;;;;;;18.15;3.67;;;;;;;;;;5154186;27;20100;-68
2022/01/31 08:11:56;;;;;;;16.10;2.90;;;;;;;;;;5147609;27;20066;-68
2022/01/31 08:14:22;;;;;;;21.73;3.75;;;;;;;;;;5142358;27;20172;-68
2022/01/31 08:16:48;;;;;;;23.52;3.80;;;;;;;;;;5144385;27;20387;-69
2022/01/31 08:19:14;;;;;;;23.23;3.20;;;;;;;;;;5147896;27;20059;-69
2022/01/31 08:21:40;;;;;;;19.98;3.47;;;;;;;;;;5113732;27;20051;-68
2022/01/31 08:24:06;;;;;;;19.52;3.33;;;;;;;;;;5134211;27;20471;-68
2022/01/31 08:26:33;;;;;;;19.63;3.38;;;;;;;;;;5152288;27;20049;-69
2022/01/31 08:29:03;;;;;;;;;;;;;;;;;;5153894;27;20083;-68
2022/01/31 08:31:34;;;;;;;19.83;3.30;;;;;;;;;;5152882;27;20295;-69
2022/01/31 08:36:31;;;;;;;24.55;4.57;;;;;;;;;;5133196;27;20055;-69
2022/01/31 08:38:57;;;;;;;20.83;3.72;;;;;;;;;;5132269;27;20035;-67
2022/01/31 08:41:24;;;;;;;23.73;3.85;;;;;;;;;;5132903;27;20039;-68
2022/01/31 08:43:51;;;;;;;21.23;3.72;;;;;;;;;;5132458;27;20043;-67
2022/01/31 08:46:18;;;;;;;18.38;3.75;;;;;;;;;;5135245;27;20139;-68
2022/01/31 08:48:44;;;;;;;23.33;3.95;;;;;;;;;;5132412;27;20043;-69
2022/01/31 08:51:12;;;;;;;20.40;3.92;;;;;;;;;;5132959;27;20066;-70
2022/01/31 08:53:39;;;;;;;28.90;3.78;;;;;;;;;;5132731;27;20051;-67
2022/01/31 08:56:07;;;;;;;27.75;4.78;;;;;;;;;;5123318;27;20052;-69
2022/01/31 08:58:35;;;;;;;24.17;3.58;;;;;;;;;;5152211;27;20462;-69
2022/01/31 09:01:03;;;;;;;17.25;3.00;;;;;;;;;;5152779;27;20059;-69
2022/01/31 09:06:09;;;;;;;23.35;4.18;;;;;;;;;;5148641;27;20059;-68
2022/01/31 09:08:35;;;;;;;18.75;3.08;;;;;;;;;;5132346;27;20116;-70
2022/01/31 09:11:02;;;;;;;22.45;2.90;;;;;;;;;;5131967;27;20111;-70
2022/01/31 09:13:28;;;;;;;22.20;3.63;;;;;;;;;;5132318;27;20051;-68
2022/01/31 09:15:55;;;;;;;24.92;4.50;;;;;;;;;;5131637;27;20082;-67
2022/01/31 09:18:21;;;;;;;;;;;;;;;;;;5114859;27;20051;-66
2022/01/31 09:20:47;;;;;;;17.92;3.45;;;;;;;;;;5131592;27;19923;-67
2022/01/31 09:23:13;;;;;;;17.50;2.75;;;;;;;;;;5131830;27;20047;-68
2022/01/31 09:25:44;;;;;;;;;;;;;;;;;;5133979;27;20074;-66
2022/01/31 09:28:12;;;;;;;19.27;3.58;;;;;;;;;;5146345;27;20250;-66
2022/01/31 09:30:39;;;;;;;18.10;2.58;;;;;;;;;;5152570;27;20050;-67
2022/01/31 09:33:04;;;;;;;;;;;;;;;;;;5152495;27;20133;-72
2022/01/31 09:35:31;;;;;;;16.60;2.55;;;;;;;;;;5150634;27;19981;-69
2022/01/31 09:37:57;;;;;;;17.20;2.53;;;;;;;;;;5150015;27;20039;-69
2022/01/31 09:40:23;;;;;;;15.43;2.78;;;;;;;;;;5131921;27;20063;-69
2022/01/31 09:51:10;;;;;;;18.60;2.78;;;;;;;;;;5112907;27;20367;-69
2022/01/31 09:53:37;;;;;;;14.45;2.53;;;;;;;;;;5140845;27;20057;-70
2022/01/31 09:56:04;;;;;;;21.30;3.45;;;;;;;;;;5151651;27;20042;-69
2022/01/31 09:58:31;;;;;;;12.35;1.98;;;;;;;;;;5147919;27;20042;-69
2022/01/31 10:01:08;;;;;;;18.55;3.08;;;;;;;;;;5130899;27;20091;-69
2022/01/31 10:03:45;;;;;;;15.38;3.63;;;;;;;;;;5131411;27;20089;-68
2022/01/31 10:06:19;;;;;;;20.75;3.10;;;;;;;;;;5130779;27;20047;-69
2022/01/31 10:08:45;;;;;;;22.60;3.88;;;;;;;;;;5137615;27;20073;-70
2022/01/31 10:11:21;;;;;;;14.27;3.05;;;;;;;;;;5151035;27;20421;-70
2022/01/31 10:16:32;;;;;;;14.50;2.97;;;;;;;;;;5151866;27;20421;-70
2022/01/31 10:19:09;;;;;;;20.60;3.55;;;;;;;;;;5132736;27;20058;-68
2022/01/31 10:21:54;;;;;;;19.30;3.20;;;;;;;;;;5152015;27;20038;-68
2022/01/31 10:24:21;;;;;;;20.63;3.70;;;;;;;;;;5132893;27;20126;-70
2022/01/31 10:26:47;;;;;;;14.60;2.45;;;;;;;;;;5131310;28;20047;-69
2022/01/31 10:29:17;;;;;;;22.38;3.35;;;;;;;;;;5130818;28;20054;-69
2022/01/31 10:32:02;;;;;;;22.95;3.70;;;;;;;;;;5131273;28;20195;-70
2022/01/31 10:34:29;;;;;;;20.45;3.65;;;;;;;;;;5146174;27;20528;-70
2022/01/31 10:37:01;;;;;;;31.73;4.18;;;;;;;;;;5151208;27;20082;-70
2022/01/31 10:51:32;;;;;;;19.40;3.40;;;;;;;;;;5130858;27;20561;-69
2022/01/31 10:54:29;;;;;;;9.93;2.80;;;;;;;;;;5134583;27;20055;-77
2022/01/31 10:56:57;;;;;;;23.90;3.72;;;;;;;;;;5127962;28;20119;-77
2022/01/31 10:59:32;;;;;;;18.88;4.13;;;;;;;;;;5131106;28;20116;-70
2022/01/31 11:01:59;;;;;;;19.70;4.25;;;;;;;;;;5130607;28;20478;-82
2022/01/31 11:04:30;;;;;;;23.77;3.55;;;;;;;;;;5131902;27;20062;-74
2022/01/31 11:07:00;;;;;;;17.65;3.60;;;;;;;;;;5130037;28;20051;-72
2022/01/31 11:09:26;;;;;;;16.35;3.03;;;;;;;;;;5130426;28;20107;-78
2022/01/31 11:11:53;;;;;;;15.73;3.50;;;;;;;;;;5111615;28;20047;-77
2022/01/31 11:14:20;;;;;;;13.05;3.40;;;;;;;;;;5132375;27;20043;-81
2022/01/31 11:16:47;;;;;;;23.60;3.95;;;;;;;;;;5130280;28;20100;-77
2022/01/31 11:19:16;;;;;;;16.02;3.65;;;;;;;;;;5129724;27;20058;-80
2022/01/31 11:21:44;;;;;;;23.55;3.95;;;;;;;;;;5115145;27;20054;-76
2022/01/31 11:24:22;;;;;;;14.35;2.70;;;;;;;;;;5135097;27;20051;-76
2022/01/31 11:26:57;;;;;;;23.83;4.32;;;;;;;;;;5152989;27;20106;-72
2022/01/31 11:29:23;;;;;;;26.20;4.28;;;;;;;;;;5131159;27;20452;-75
2022/01/31 11:31:49;;;;;;;23.00;3.28;;;;;;;;;;5154853;27;20050;-74
2022/01/31 11:34:15;;;;;;;24.98;4.13;;;;;;;;;;5154657;27;20043;-71
2022/01/31 11:36:43;;;;;;;24.38;3.17;;;;;;;;;;5122941;27;20051;-67
2022/01/31 11:39:11;;;;;;;23.98;4.38;;;;;;;;;;5105842;27;20043;-76
2022/01/31 11:41:41;;;;;;;19.27;3.50;;;;;;;;;;5136153;27;20059;-80
2022/01/31 11:44:14;;;;;;;19.85;3.60;;;;;;;;;;5152724;27;20065;-67
2022/01/31 11:46:40;;;;;;;42.17;4.38;;;;;;;;;;5154457;27;20086;-76
2022/01/31 11:49:06;;;;;;;;;;;;;;;;;;5155059;27;20115;-71
2022/01/31 11:51:35;;;;;;;22.08;3.22;;;;;;;;;;5154106;27;19941;-72
2022/01/31 11:54:08;;;;;;;26.55;5.05;;;;;;;;;;5152186;27;20042;-73
2022/01/31 11:56:44;;;;;;;16.42;3.13;;;;;;;;;;5130836;27;20051;-71
2022/01/31 11:59:13;;;;;;;22.80;4.45;;;;;;;;;;5114650;27;20047;-71
2022/01/31 12:01:42;;;;;;;37.90;4.88;;;;;;;;;;5133398;27;20129;-74
2022/01/31 12:04:13;;;;;;;27.48;6.40;;;;;;;;;;5132969;27;20111;-73
2022/01/31 12:06:39;;;;;;;14.15;3.47;;;;;;;;;;5148981;27;20142;-74
2022/01/31 12:09:06;;;;;;;19.45;3.25;;;;;;;;;;5153111;27;20042;-83
2022/01/31 12:11:52;;;;;;;29.83;4.90;;;;;;;;;;5153957;27;20083;-77
2022/01/31 12:14:25;;;;;;;24.88;4.25;;;;;;;;;;5134673;27;20501;-72
2022/01/31 12:17:10;;;;;;;21.52;3.60;;;;;;;;;;5120135;27;20050;-71
2022/01/31 12:22:12;;;;;;;26.13;3.83;;;;;;;;;;5132444;27;20046;-70
2022/01/31 12:24:38;;;;;;;26.17;4.68;;;;;;;;;;5134415;27;20505;-73
2022/01/31 12:27:04;;;;;;;34.20;5.03;;;;;;;;;;5140331;27;20039;-73
2022/01/31 12:29:31;;;;;;;30.73;5.22;;;;;;;;;;5153182;27;20050;-75
2022/01/31 12:32:13;;;;;;;24.42;3.92;;;;;;;;;;5135183;27;20086;-73
2022/01/31 12:34:49;;;;;;;28.33;4.53;;;;;;;;;;5154074;27;20052;-66
2022/01/31 12:37:20;;;;;;;22.33;3.90;;;;;;;;;;5151669;27;20078;-75
2022/01/31 12:39:58;;;;;;;23.67;4.63;;;;;;;;;;5132926;27;20043;-74
2022/01/31 12:43:11;;;;;;;33.72;5.18;;;;;;;;;;5134795;27;20047;-72
2022/01/31 12:45:28;;;;;;;24.23;5.05;;;;;;;;;;5112680;27;20061;-82
2022/01/31 12:48:09;;;;;;;22.48;4.55;;;;;;;;;;5133648;27;20136;-84
2022/01/31 12:50:40;;;;;;;23.98;3.78;;;;;;;;;;5114190;27;20119;-84
2022/01/31 12:53:41;;;;;;;32.30;4.63;;;;;;;;;;5132737;27;20112;-85
2022/01/31 12:56:23;;;;;;;19.42;3.45;;;;;;;;;;5132667;27;20443;-84
2022/01/31 12:58:51;;;;;;;23.88;3.83;;;;;;;;;;5134651;27;20071;-74
2022/01/31 13:01:20;;;;;;;32.10;4.82;;;;;;;;;;5131740;27;20043;-73
2022/01/31 13:03:48;;;;;;;23.50;3.63;;;;;;;;;;5132368;27;20130;-81
2022/01/31 13:06:25;;;;;;;26.08;3.63;;;;;;;;;;5131692;27;20391;-77
2022/01/31 13:08:52;;;;;;;34.78;5.00;;;;;;;;;;5133279;27;20031;-76
2022/01/31 13:11:18;;;;;;;30.50;4.07;;;;;;;;;;5131738;27;20047;-74
2022/01/31 13:13:44;;;;;;;22.20;4.90;;;;;;;;;;5113813;27;20058;-81
2022/01/31 13:16:11;;;;;;;26.05;4.80;;;;;;;;;;5133294;27;20046;-68
2022/01/31 13:18:38;;;;;;;34.28;4.43;;;;;;;;;;5149318;27;20134;-83
2022/01/31 13:21:06;;;;;;;33.67;4.57;;;;;;;;;;5152795;27;20099;-74
2022/01/31 13:23:33;;;;;;;26.50;4.10;;;;;;;;;;5134006;27;20500;-75
2022/01/31 13:26:00;;;;;;;26.67;4.80;;;;;;;;;;5139587;27;20460;-69
2022/01/31 13:28:26;;;;;;;28.45;4.80;;;;;;;;;;5132446;27;20039;-80
2022/01/31 13:30:52;;;;;;;24.45;4.90;;;;;;;;;;5113609;27;20043;-86
2022/01/31 13:33:19;;;;;;;27.33;4.70;;;;;;;;;;5131234;27;20514;-79
2022/01/31 13:35:47;;;;;;;;;;;;;;;;;;5131837;27;20058;-82
2022/01/31 13:38:20;;;;;;;22.77;4.07;;;;;;;;;;5097455;27;19919;-76
2022/01/31 13:40:48;;;;;;;30.20;4.60;;;;;;;;;;5113095;27;20118;-79
2022/01/31 13:43:21;;;;;;;26.48;4.60;;;;;;;;;;5130088;27;20325;-82
2022/01/31 13:46:16;;;;;;;36.33;6.80;;;;;;;;;;5130974;27;20138;-73
2022/01/31 13:51:47;;;;;;;32.92;5.30;;;;;;;;;;5131182;27;20090;-72
2022/01/31 13:54:15;;;;;;;26.17;5.10;;;;;;;;;;5131076;27;20516;-78
2022/01/31 13:56:58;;;;;;;28.88;6.65;;;;;;;;;;5112432;27;20078;-74
2022/01/31 13:59:25;;;;;;;22.92;3.63;;;;;;;;;;5095759;27;20134;-82
2022/01/31 14:02:05;;;;;;;15.40;3.53;;;;;;;;;;5112814;27;20043;-76
2022/01/31 14:04:32;;;;;;;26.92;5.20;;;;;;;;;;5131205;27;20039;-77
2022/01/31 14:06:58;;;;;;;18.50;3.25;;;;;;;;;;5095604;27;20515;-75
2022/01/31 14:09:31;;;;;;;24.10;4.93;;;;;;;;;;5111825;27;20368;-72
2022/01/31 14:11:57;;;;;;;34.15;5.75;;;;;;;;;;5130669;27;20542;-78
2022/01/31 14:14:27;;;;;;;18.25;3.80;;;;;;;;;;5112088;27;20043;-75
2022/01/31 14:16:55;;;;;;;25.98;4.10;;;;;;;;;;5131765;27;20083;-74
2022/01/31 14:19:24;;;;;;;29.00;5.07;;;;;;;;;;5128206;27;20052;-67
2022/01/31 14:21:50;;;;;;;15.02;2.70;;;;;;;;;;5130523;27;20043;-76
2022/01/31 14:24:19;;;;;;;10.73;2.55;;;;;;;;;;5130304;27;20079;-73
2022/01/31 14:26:49;;;;;;;14.60;2.35;;;;;;;;;;5150321;27;20464;-68
2022/01/31 14:29:17;;;;;;;12.73;2.80;;;;;;;;;;5151528;27;20522;-70
2022/01/31 14:31:46;;;;;;;29.95;3.92;;;;;;;;;;5132495;27;20050;-65
2022/01/31 14:34:15;;;;;;;23.13;4.40;;;;;;;;;;5132707;27;20053;-69
2022/01/31 14:36:43;;;;;;;22.27;4.50;;;;;;;;;;5143791;27;20046;-76
2022/01/31 14:40:06;;;;;;;20.08;3.80;;;;;;;;;;5130294;28;20043;-70
2022/01/31 14:42:34;;;;;;;31.98;3.90;;;;;;;;;;5122229;28;20069;-67
2022/01/31 14:47:53;;;;;;;23.42;5.65;;;;;;;;;;5135000;27;20043;-67
2022/01/31 14:50:32;;;;;;;27.02;6.43;;;;;;;;;;5145370;27;20143;-67
2022/01/31 14:53:13;;;;;;;25.23;7.65;;;;;;;;;;5129276;27;20157;-67
2022/01/31 14:55:40;;;;;;;31.67;9.02;;;;;;;;;;5147964;27;20050;-67
2022/01/31 14:58:07;;;;;;;32.88;10.30;;;;;;;;;;5151009;27;20121;-66
2022/01/31 15:00:33;;;;;;;32.30;9.98;;;;;;;;;;5153995;27;20035;-65
2022/01/31 15:02:59;;;;;;;30.80;11.32;;;;;;;;;;5155111;27;20046;-67
2022/01/31 15:05:25;;;;;;;25.83;11.23;;;;;;;;;;5154379;27;20138;-66
2022/01/31 15:07:52;;;;;;;33.72;11.07;;;;;;;;;;5152746;27;20049;-65
2022/01/31 15:10:19;;;;;;;21.40;8.82;;;;;;;;;;5152675;27;20438;-67
2022/01/31 15:12:45;;;;;;;;;;;;;;;;;;5147695;27;20070;-75
2022/01/31 15:15:20;;;;;;;29.38;11.15;;;;;;;;;;5144571;27;19939;-72
2022/01/31 15:17:50;;;;;;;24.83;10.00;;;;;;;;;;5145801;27;20042;-70
2022/01/31 15:20:18;;;;;;;29.77;10.45;;;;;;;;;;5135943;27;20062;-72